createdAt,value
2019-06-26T00:00:25.425Z,14.93
2019-06-26T00:02:54.568Z,15.03
2019-06-26T00:05:23.805Z,15.30
2019-06-26T00:07:53.106Z,15.00
2019-06-26T00:10:22.387Z,15.23
2019-06-26T00:12:51.951Z,14.37
2019-06-26T00:15:21.345Z,15.80
2019-06-26T00:17:50.804Z,15.50
2019-06-26T00:20:20.319Z,15.80
2019-06-26T00:22:49.558Z,16.07
2019-06-26T00:25:19.142Z,14.57
2019-06-26T00:27:48.656Z,15.50
2019-06-26T00:30:18.631Z,14.80
2019-06-26T00:32:47.814Z,15.40
2019-06-26T00:35:17.042Z,15.37
2019-06-26T00:37:46.289Z,15.20
2019-06-26T00:40:15.793Z,15.40
2019-06-26T00:42:45.292Z,14.43
2019-06-26T00:45:15.487Z,16.00
2019-06-26T00:47:45.003Z,15.77
2019-06-26T00:50:14.680Z,15.20
2019-06-26T00:52:43.892Z,15.10
2019-06-26T00:55:13.167Z,14.73
2019-06-26T00:57:42.469Z,15.40
2019-06-26T01:00:12.569Z,15.97
2019-06-26T01:02:41.938Z,14.60
2019-06-26T01:05:12.076Z,16.30
2019-06-26T01:07:41.273Z,15.03
2019-06-26T01:10:11.190Z,17.63
2019-06-26T01:12:40.767Z,15.77
2019-06-26T01:15:11.567Z,15.97
2019-06-26T01:17:41.249Z,16.37
2019-06-26T01:20:12.603Z,16.93
2019-06-26T01:22:42.086Z,16.00
2019-06-26T01:25:12.354Z,15.30
2019-06-26T01:27:41.581Z,16.35
2019-06-26T01:30:11.076Z,15.93
2019-06-26T01:32:40.695Z,16.70
2019-06-26T01:35:10.836Z,15.77
2019-06-26T01:37:40.490Z,16.30
2019-06-26T01:40:09.704Z,17.00
2019-06-26T01:42:38.939Z,16.70
2019-06-26T01:45:08.426Z,16.77
2019-06-26T01:47:37.668Z,16.07
2019-06-26T01:50:08.893Z,16.70
2019-06-26T01:52:39.127Z,17.05
2019-06-26T01:55:10.192Z,17.17
2019-06-26T01:57:39.367Z,17.17
2019-06-26T02:00:09.340Z,16.75
2019-06-26T02:02:38.568Z,16.30
2019-06-26T02:05:07.999Z,15.60
2019-06-26T02:07:37.590Z,17.48
2019-06-26T02:10:08.181Z,17.02
2019-06-26T02:12:37.576Z,17.40
2019-06-26T02:15:07.530Z,18.10
2019-06-26T02:17:36.839Z,17.40
2019-06-26T02:20:06.588Z,17.75
2019-06-26T02:22:36.192Z,17.87
2019-06-26T02:25:06.382Z,19.27
2019-06-26T02:27:36.419Z,18.13
2019-06-26T02:30:06.095Z,17.10
2019-06-26T02:32:35.389Z,17.87
2019-06-26T02:35:09.333Z,17.20
2019-06-26T02:37:36.670Z,17.43
2019-06-26T02:40:06.917Z,17.63
2019-06-26T02:42:36.114Z,18.70
2019-06-26T02:45:06.576Z,19.43
2019-06-26T02:47:36.201Z,17.20
2019-06-26T02:50:06.292Z,18.47
2019-06-26T02:52:35.871Z,17.63
2019-06-26T02:55:05.662Z,16.43
2019-06-26T02:57:34.841Z,17.77
2019-06-26T03:00:04.902Z,18.32
2019-06-26T03:02:34.376Z,16.93
2019-06-26T03:05:03.681Z,16.00
2019-06-26T03:07:32.860Z,18.43
2019-06-26T03:10:02.051Z,17.83
2019-06-26T03:12:31.636Z,17.07
2019-06-26T03:15:08.654Z,17.30
2019-06-26T03:17:31.899Z,18.50
2019-06-26T03:20:01.050Z,17.37
2019-06-26T03:22:30.695Z,18.37
2019-06-26T03:24:59.900Z,17.10
2019-06-26T03:27:29.180Z,17.97
2019-06-26T03:29:58.588Z,19.10
2019-06-26T03:32:28.128Z,18.00
2019-06-26T03:34:57.269Z,17.67
2019-06-26T03:37:26.515Z,18.30
2019-06-26T03:39:55.758Z,16.90
2019-06-26T03:42:24.984Z,17.40
2019-06-26T03:44:54.219Z,18.73
2019-06-26T03:47:23.379Z,18.23
2019-06-26T03:49:52.942Z,18.62
2019-06-26T03:52:22.170Z,18.30
2019-06-26T03:54:51.390Z,17.07
2019-06-26T03:57:20.647Z,18.73
2019-06-26T03:59:49.908Z,18.37
2019-06-26T04:02:19.508Z,17.00
2019-06-26T04:04:48.750Z,16.67
2019-06-26T04:07:18.042Z,17.83
2019-06-26T04:09:47.393Z,18.10
2019-06-26T04:12:16.836Z,17.43
2019-06-26T04:14:46.153Z,16.73
2019-06-26T04:17:15.537Z,17.60
2019-06-26T04:19:45.068Z,17.40
2019-06-26T04:22:14.331Z,18.30
2019-06-26T04:24:43.572Z,18.20
2019-06-26T04:27:12.899Z,17.93
2019-06-26T04:29:42.445Z,17.13
2019-06-26T04:32:11.720Z,18.37
2019-06-26T04:34:44.407Z,19.67
2019-06-26T04:37:19.765Z,18.30
2019-06-26T04:39:49.056Z,20.17
2019-06-26T04:42:21.144Z,18.13
2019-06-26T04:44:53.421Z,17.27
2019-06-26T04:47:25.174Z,18.70
2019-06-26T04:49:57.196Z,17.93
2019-06-26T04:52:28.586Z,19.30
2019-06-26T04:55:00.297Z,20.00
2019-06-26T04:57:29.968Z,18.37
2019-06-26T04:59:59.202Z,19.25
2019-06-26T05:02:28.456Z,18.90
2019-06-26T05:04:57.819Z,20.40
2019-06-26T05:07:27.008Z,18.50
2019-06-26T05:09:56.558Z,18.80
2019-06-26T05:12:25.792Z,18.70
2019-06-26T05:14:55.180Z,18.77
2019-06-26T05:17:24.695Z,18.93
2019-06-26T05:19:53.846Z,18.23
2019-06-26T05:22:23.500Z,18.10
2019-06-26T05:24:54.279Z,18.93
2019-06-26T05:27:23.615Z,17.37
2019-06-26T05:29:54.500Z,16.80
2019-06-26T05:32:24.248Z,18.43
2019-06-26T05:34:53.709Z,18.00
2019-06-26T05:37:22.957Z,19.13
2019-06-26T05:39:54.783Z,18.17
2019-06-26T05:42:24.895Z,18.10
2019-06-26T05:44:54.260Z,18.27
2019-06-26T05:47:23.840Z,17.48
2019-06-26T05:49:54.324Z,17.87
2019-06-26T05:52:23.851Z,17.97
2019-06-26T05:54:53.404Z,18.30
2019-06-26T05:57:22.729Z,17.10
2019-06-26T05:59:52.430Z,19.33
2019-06-26T06:02:21.641Z,18.20
2019-06-26T06:04:51.035Z,19.70
2019-06-26T06:07:20.345Z,17.70
2019-06-26T06:09:50.428Z,18.05
2019-06-26T06:12:19.708Z,17.03
2019-06-26T06:14:48.916Z,17.37
2019-06-26T06:17:18.176Z,17.20
2019-06-26T06:19:47.759Z,18.17
2019-06-26T06:22:17.046Z,16.87
2019-06-26T06:24:46.707Z,16.80
2019-06-26T06:27:16.228Z,18.10
2019-06-26T06:29:45.761Z,16.20
2019-06-26T06:32:14.984Z,16.95
2019-06-26T06:34:44.119Z,18.42
2019-06-26T06:37:13.331Z,16.60
2019-06-26T06:39:42.575Z,17.43
2019-06-26T06:42:12.116Z,18.20
2019-06-26T06:44:41.325Z,15.70
2019-06-26T06:47:10.874Z,15.23
2019-06-26T06:49:40.150Z,16.17
2019-06-26T06:52:09.713Z,15.73
2019-06-26T06:54:39.232Z,16.52
2019-06-26T06:57:08.788Z,16.17
2019-06-26T06:59:38.115Z,15.63
2019-06-26T07:02:07.504Z,17.37
2019-06-26T07:04:37.047Z,16.57
2019-06-26T07:07:06.308Z,16.10
2019-06-26T07:09:36.194Z,16.53
2019-06-26T07:12:05.789Z,16.03
2019-06-26T07:14:35.087Z,15.00
2019-06-26T07:17:19.477Z,15.70
2019-06-26T07:19:35.587Z,15.90
2019-06-26T07:22:07.218Z,15.03
2019-06-26T07:24:35.751Z,16.27
2019-06-26T07:27:05.144Z,15.87
2019-06-26T07:29:34.377Z,16.03
2019-06-26T07:32:04.268Z,16.70
2019-06-26T07:34:33.471Z,16.20
2019-06-26T07:37:02.693Z,15.50
2019-06-26T07:39:31.991Z,15.60
2019-06-26T07:42:01.403Z,16.73
2019-06-26T07:44:30.836Z,13.87
2019-06-26T07:47:00.516Z,13.80
2019-06-26T07:49:30.045Z,14.10
2019-06-26T07:51:59.641Z,15.40
2019-06-26T07:54:28.903Z,14.97
2019-06-26T07:56:58.267Z,15.77
2019-06-26T07:59:28.248Z,13.97
2019-06-26T08:01:57.609Z,14.20
2019-06-26T08:04:26.882Z,14.23
2019-06-26T08:06:56.144Z,13.77
2019-06-26T08:09:25.659Z,14.10
2019-06-26T08:11:54.856Z,13.57
2019-06-26T08:14:24.401Z,14.47
2019-06-26T08:16:53.667Z,13.90
2019-06-26T08:19:23.430Z,13.73
2019-06-26T08:21:53.351Z,15.07
2019-06-26T08:24:23.017Z,14.03
2019-06-26T08:26:52.223Z,12.73
2019-06-26T08:29:21.448Z,13.13
2019-06-26T08:31:50.679Z,13.30
2019-06-26T08:34:19.974Z,12.70
2019-06-26T08:36:50.105Z,12.47
2019-06-26T08:39:19.402Z,12.80
2019-06-26T08:41:48.759Z,13.03
2019-06-26T08:44:17.961Z,13.43
2019-06-26T08:46:47.262Z,12.53
2019-06-26T08:49:25.511Z,13.67
2019-06-26T08:51:47.413Z,13.10
2019-06-26T08:54:16.670Z,13.70
2019-06-26T08:56:45.973Z,13.30
2019-06-26T08:59:15.168Z,12.27
2019-06-26T09:01:44.452Z,13.03
2019-06-26T09:04:14.003Z,12.23
2019-06-26T09:06:44.095Z,12.63
2019-06-26T09:09:13.316Z,12.43
2019-06-26T09:11:43.192Z,12.83
2019-06-26T09:14:12.902Z,11.90
2019-06-26T09:16:42.199Z,12.10
2019-06-26T09:19:11.714Z,11.87
2019-06-26T09:21:40.977Z,10.60
2019-06-26T09:24:10.509Z,10.20
2019-06-26T09:26:39.887Z,10.20
2019-06-26T09:29:09.769Z,11.53
2019-06-26T09:31:39.092Z,10.43
2019-06-26T09:34:08.248Z,11.10
2019-06-26T09:36:37.396Z,10.90
2019-06-26T09:39:07.884Z,11.07
2019-06-26T09:41:37.109Z,8.33
2019-06-26T09:44:06.453Z,8.40
2019-06-26T09:46:35.699Z,8.67
2019-06-26T09:49:05.257Z,8.67
2019-06-26T09:51:34.815Z,8.90
2019-06-26T09:54:04.063Z,9.33
2019-06-26T09:56:33.939Z,8.73
2019-06-26T09:59:03.235Z,8.60
2019-06-26T10:01:32.480Z,7.47
2019-06-26T10:04:01.761Z,8.03
2019-06-26T10:06:31.075Z,8.53
2019-06-26T10:09:00.318Z,8.20
2019-06-26T10:11:29.495Z,8.30
2019-06-26T10:13:59.059Z,8.80
2019-06-26T10:16:28.339Z,8.87
2019-06-26T10:19:09.666Z,8.00
2019-06-26T10:21:28.861Z,8.20
2019-06-26T10:23:58.110Z,8.30
2019-06-26T10:26:27.322Z,8.95
2019-06-26T10:28:56.500Z,9.20
2019-06-26T10:31:25.801Z,9.03
2019-06-26T10:33:55.060Z,8.63
2019-06-26T10:36:24.821Z,8.83
2019-06-26T10:38:54.164Z,9.07
2019-06-26T10:41:23.372Z,9.88
2019-06-26T10:43:53.564Z,9.60
2019-06-26T10:46:23.166Z,8.93
2019-06-26T10:48:52.747Z,8.53
2019-06-26T10:51:22.224Z,8.73
2019-06-26T10:53:51.728Z,8.17
2019-06-26T10:56:21.291Z,8.03
2019-06-26T10:58:50.773Z,7.80
2019-06-26T11:01:20.095Z,8.10
2019-06-26T11:03:50.217Z,8.00
2019-06-26T11:06:19.491Z,8.30
2019-06-26T11:08:48.742Z,8.13
2019-06-26T11:11:18.492Z,7.40
2019-06-26T11:13:47.798Z,7.30
2019-06-26T11:16:17.320Z,7.60
2019-06-26T11:18:46.607Z,7.20
2019-06-26T11:21:15.928Z,7.47
2019-06-26T11:23:45.303Z,7.93
2019-06-26T11:26:14.628Z,7.50
2019-06-26T11:28:44.196Z,7.50
2019-06-26T11:31:13.474Z,7.23
2019-06-26T11:33:43.383Z,8.33
2019-06-26T11:36:12.623Z,8.47
2019-06-26T11:38:42.133Z,7.93
2019-06-26T11:41:11.638Z,9.07
2019-06-26T11:43:40.939Z,7.43
2019-06-26T11:46:10.255Z,8.30
2019-06-26T11:48:39.879Z,7.37
2019-06-26T11:51:09.215Z,7.77
2019-06-26T11:53:38.582Z,8.30
2019-06-26T11:56:08.525Z,8.57
2019-06-26T11:58:38.076Z,7.80
2019-06-26T12:01:07.333Z,8.53
2019-06-26T12:03:36.891Z,9.20
2019-06-26T12:06:17.645Z,8.00
2019-06-26T12:08:36.936Z,7.70
2019-06-26T12:11:06.276Z,8.23
2019-06-26T12:13:35.564Z,7.10
2019-06-26T12:16:04.794Z,7.60
2019-06-26T12:18:33.992Z,8.00
2019-06-26T12:21:03.283Z,7.27
2019-06-26T12:23:32.552Z,7.30
2019-06-26T12:26:01.897Z,6.90
2019-06-26T12:28:31.463Z,6.37
2019-06-26T12:31:00.624Z,6.13
2019-06-26T12:33:30.240Z,6.80
2019-06-26T12:35:59.513Z,6.93
2019-06-26T12:38:28.675Z,7.17
2019-06-26T12:40:57.934Z,7.03
2019-06-26T12:43:27.134Z,6.43
2019-06-26T12:45:56.845Z,6.60
2019-06-26T12:48:26.084Z,6.60
2019-06-26T12:50:56.405Z,7.27
2019-06-26T12:53:25.633Z,6.60
2019-06-26T12:55:55.375Z,7.37
2019-06-26T12:58:24.806Z,7.37
2019-06-26T13:00:54.417Z,6.40
2019-06-26T13:03:23.984Z,7.20
2019-06-26T13:05:53.127Z,6.47
2019-06-26T13:08:22.312Z,7.13
2019-06-26T13:10:51.483Z,5.90
2019-06-26T13:13:20.696Z,6.60
2019-06-26T13:15:51.149Z,5.70
2019-06-26T13:18:21.453Z,5.77
2019-06-26T13:20:53.362Z,6.33
2019-06-26T13:23:22.225Z,5.10
2019-06-26T13:25:51.450Z,5.73
2019-06-26T13:28:20.989Z,6.47
2019-06-26T13:30:53.170Z,6.03
2019-06-26T13:33:21.304Z,6.23
2019-06-26T13:35:50.792Z,6.10
2019-06-26T13:38:20.294Z,6.13
2019-06-26T13:40:50.383Z,7.30
2019-06-26T13:43:19.593Z,6.30
2019-06-26T13:45:48.759Z,7.03
2019-06-26T13:48:17.950Z,7.47
2019-06-26T13:50:47.402Z,6.42
2019-06-26T13:53:16.685Z,6.90
2019-06-26T13:55:45.934Z,7.67
2019-06-26T13:58:15.122Z,6.83
2019-06-26T14:00:44.355Z,7.10
2019-06-26T14:03:13.677Z,7.90
2019-06-26T14:05:42.853Z,6.93
2019-06-26T14:08:12.388Z,7.50
2019-06-26T14:10:41.733Z,8.53
2019-06-26T14:13:10.960Z,9.00
2019-06-26T14:15:40.497Z,7.60
2019-06-26T14:18:09.728Z,8.30
2019-06-26T14:20:39.286Z,9.07
2019-06-26T14:23:08.534Z,9.30
2019-06-26T14:25:37.847Z,9.10
2019-06-26T14:28:07.008Z,8.78
2019-06-26T14:30:36.324Z,9.00
2019-06-26T14:33:05.527Z,8.67
2019-06-26T14:35:34.789Z,8.90
2019-06-26T14:38:04.311Z,9.23
2019-06-26T14:40:33.544Z,9.20
2019-06-26T14:43:02.882Z,9.47
2019-06-26T14:45:32.561Z,9.18
2019-06-26T14:48:01.741Z,8.60
2019-06-26T14:50:30.947Z,10.03
2019-06-26T14:53:00.518Z,10.18
2019-06-26T14:55:29.807Z,9.48
2019-06-26T14:57:59.292Z,9.08
2019-06-26T15:00:28.885Z,9.30
2019-06-26T15:02:58.074Z,9.40
2019-06-26T15:05:27.575Z,9.80
2019-06-26T15:07:56.876Z,9.37
2019-06-26T15:10:26.153Z,10.03
2019-06-26T15:12:55.372Z,9.00
2019-06-26T15:15:24.560Z,9.70
2019-06-26T15:17:53.933Z,9.23
2019-06-26T15:20:23.731Z,9.10
2019-06-26T15:22:53.239Z,9.43
2019-06-26T15:25:22.520Z,9.50
2019-06-26T15:27:51.684Z,9.07
2019-06-26T15:30:20.909Z,9.97
2019-06-26T15:32:50.425Z,9.70
2019-06-26T15:35:19.950Z,10.13
2019-06-26T15:37:49.222Z,9.55
2019-06-26T15:40:18.509Z,10.13
2019-06-26T15:42:49.084Z,10.07
2019-06-26T15:45:20.831Z,9.30
2019-06-26T15:47:50.596Z,10.43
2019-06-26T15:50:20.570Z,9.83
2019-06-26T15:52:49.793Z,9.60
2019-06-26T15:55:19.121Z,10.23
2019-06-26T15:57:48.399Z,9.40
2019-06-26T16:00:17.678Z,9.70
2019-06-26T16:02:46.922Z,9.53
2019-06-26T16:05:16.287Z,9.07
2019-06-26T16:07:45.888Z,9.50
2019-06-26T16:10:15.495Z,9.67
2019-06-26T16:12:44.861Z,9.10
2019-06-26T16:15:15.009Z,9.57
2019-06-26T16:17:49.915Z,9.30
2019-06-26T16:20:19.431Z,10.08
2019-06-26T16:22:48.683Z,8.50
2019-06-26T16:25:18.022Z,8.07
2019-06-26T16:28:00.951Z,8.70
2019-06-26T16:30:18.297Z,7.70
2019-06-26T16:32:47.797Z,8.23
2019-06-26T16:35:17.063Z,8.53
2019-06-26T16:37:46.395Z,8.73
2019-06-26T16:40:15.710Z,8.27
2019-06-26T16:42:44.975Z,8.17
2019-06-26T16:45:15.547Z,8.63
2019-06-26T16:47:45.143Z,8.30
2019-06-26T16:50:14.517Z,9.00
2019-06-26T16:52:49.633Z,7.00
2019-06-26T16:55:17.343Z,8.80
2019-06-26T16:57:46.616Z,8.50
2019-06-26T17:00:17.624Z,7.63
2019-06-26T17:02:46.903Z,7.97
2019-06-26T17:05:16.820Z,7.63
2019-06-26T17:07:45.978Z,7.97
2019-06-26T17:10:15.440Z,7.67
2019-06-26T17:12:44.696Z,8.37
2019-06-26T17:15:14.035Z,7.70
2019-06-26T17:17:43.585Z,7.33
2019-06-26T17:20:13.079Z,8.10
2019-06-26T17:22:42.815Z,7.30
2019-06-26T17:25:12.315Z,7.87
2019-06-26T17:27:41.577Z,8.23
2019-06-26T17:30:11.180Z,7.83
2019-06-26T17:32:40.445Z,7.90
2019-06-26T17:35:09.654Z,7.03
2019-06-26T17:37:38.868Z,7.00
2019-06-26T17:40:08.364Z,7.30
2019-06-26T17:42:37.634Z,7.27
2019-06-26T17:45:07.062Z,6.93
2019-06-26T17:47:36.359Z,7.80
2019-06-26T17:50:06.289Z,7.40
2019-06-26T17:52:47.203Z,7.17
2019-06-26T17:55:30.329Z,6.93
2019-06-26T17:58:13.989Z,7.30
2019-06-26T18:01:06.924Z,8.20
2019-06-26T18:03:42.220Z,8.10
2019-06-26T18:06:15.193Z,7.77
2019-06-26T18:08:49.515Z,7.10
2019-06-26T18:11:30.542Z,8.37
2019-06-26T18:13:59.974Z,7.60
2019-06-26T18:16:29.629Z,8.40
2019-06-26T18:18:59.586Z,8.60
2019-06-26T18:21:29.259Z,8.33
2019-06-26T18:23:58.617Z,9.70
2019-06-26T18:26:28.022Z,9.40
2019-06-26T18:28:57.662Z,12.10
2019-06-26T18:31:30.463Z,10.97
2019-06-26T18:33:58.298Z,11.63
2019-06-26T18:36:29.186Z,11.50
2019-06-26T18:38:59.277Z,12.53
2019-06-26T18:41:31.197Z,12.70
2019-06-26T18:44:06.600Z,12.37
2019-06-26T18:46:44.332Z,13.08
2019-06-26T18:49:14.397Z,13.70
2019-06-26T18:52:02.275Z,13.27
2019-06-26T18:54:39.743Z,14.57
2019-06-26T18:57:09.179Z,14.40
2019-06-26T18:59:42.059Z,14.40
2019-06-26T19:02:09.569Z,13.60
2019-06-26T19:04:38.935Z,14.13
2019-06-26T19:07:08.202Z,13.50
2019-06-26T19:09:37.473Z,13.13
2019-06-26T19:12:07.061Z,13.70
2019-06-26T19:14:36.315Z,15.10
2019-06-26T19:17:05.949Z,13.47
2019-06-26T19:19:44.999Z,14.25
2019-06-26T19:22:34.152Z,12.65
2019-06-26T19:28:37.197Z,12.77
2019-06-26T19:31:29.406Z,12.60
2019-06-26T19:34:07.996Z,13.00
2019-06-26T19:36:50.190Z,12.60
2019-06-26T19:39:20.775Z,12.50
2019-06-26T19:41:48.832Z,12.30
2019-06-26T19:44:25.171Z,12.23
2019-06-26T19:47:12.303Z,13.30
2019-06-26T19:49:45.871Z,13.60
2019-06-26T19:52:17.062Z,13.07
2019-06-26T19:54:50.354Z,12.03
2019-06-26T19:57:19.848Z,12.40
2019-06-26T19:59:52.118Z,12.57
2019-06-26T20:02:21.413Z,11.90
2019-06-26T20:04:53.712Z,12.70
2019-06-26T20:07:23.057Z,12.80
2019-06-26T20:09:54.856Z,13.25
2019-06-26T20:12:24.169Z,12.93
2019-06-26T20:14:57.954Z,12.57
2019-06-26T20:17:27.301Z,13.83
2019-06-26T20:19:57.017Z,15.30
2019-06-26T20:22:26.304Z,13.30
2019-06-26T20:24:57.430Z,13.03
2019-06-26T20:27:29.979Z,13.93
2019-06-26T20:30:00.587Z,13.67
2019-06-26T20:32:32.398Z,13.88
2019-06-26T20:35:02.189Z,14.00
2019-06-26T20:37:31.439Z,13.30
2019-06-26T20:40:00.789Z,13.33
2019-06-26T20:42:30.458Z,14.00
2019-06-26T20:44:59.708Z,13.63
2019-06-26T20:47:28.925Z,13.93
2019-06-26T20:49:58.467Z,13.77
2019-06-26T20:52:27.694Z,14.60
2019-06-26T20:55:01.973Z,13.93
2019-06-26T20:57:28.375Z,13.47
2019-06-26T20:59:57.569Z,13.80
2019-06-26T21:02:26.985Z,14.00
2019-06-26T21:04:56.538Z,13.15
2019-06-26T21:07:25.940Z,14.20
2019-06-26T21:09:55.220Z,13.22
2019-06-26T21:12:24.800Z,14.20
2019-06-26T21:14:53.987Z,14.63
2019-06-26T21:17:25.813Z,14.73
2019-06-26T21:19:54.902Z,15.00
2019-06-26T21:22:24.133Z,14.68
2019-06-26T21:24:53.818Z,14.90
2019-06-26T21:27:23.735Z,14.87
2019-06-26T21:29:53.006Z,14.20
2019-06-26T21:32:22.246Z,14.83
2019-06-26T21:34:51.816Z,15.10
2019-06-26T21:37:21.842Z,15.97
2019-06-26T21:39:51.170Z,15.33
2019-06-26T21:42:20.659Z,14.30
2019-06-26T21:44:50.502Z,13.70
2019-06-26T21:47:19.860Z,14.50
2019-06-26T21:49:49.131Z,14.33
2019-06-26T21:52:18.323Z,14.37
2019-06-26T21:54:50.608Z,13.60
2019-06-26T21:57:20.081Z,14.10
2019-06-26T21:59:49.833Z,14.50
2019-06-26T22:02:19.366Z,14.78
2019-06-26T22:04:51.604Z,15.00
2019-06-26T22:07:30.078Z,15.32
2019-06-26T22:09:59.729Z,15.00
2019-06-26T22:12:31.179Z,15.07
2019-06-26T22:15:00.418Z,15.20
2019-06-26T22:17:30.194Z,15.33
2019-06-26T22:19:59.372Z,15.30
2019-06-26T22:22:29.280Z,15.10
2019-06-26T22:24:58.518Z,15.50
2019-06-26T22:27:27.754Z,14.03
2019-06-26T22:29:57.094Z,15.60
2019-06-26T22:32:26.589Z,16.43
2019-06-26T22:34:55.908Z,16.57
2019-06-26T22:37:25.663Z,16.15
2019-06-26T22:39:55.767Z,15.70
2019-06-26T22:42:26.591Z,17.00
2019-06-26T22:44:56.911Z,16.53
2019-06-26T22:47:26.184Z,15.20
2019-06-26T22:50:00.372Z,16.07
2019-06-26T22:52:33.492Z,15.90
2019-06-26T22:55:02.866Z,16.03
2019-06-26T22:57:32.094Z,16.67
2019-06-26T23:00:02.276Z,16.63
2019-06-26T23:02:33.554Z,16.00
2019-06-26T23:05:03.194Z,16.40
2019-06-26T23:07:32.528Z,15.27
2019-06-26T23:10:01.954Z,16.12
2019-06-26T23:12:32.146Z,16.57
2019-06-26T23:15:01.595Z,16.60
2019-06-26T23:17:31.519Z,16.27
2019-06-26T23:20:01.085Z,16.73
2019-06-26T23:22:30.450Z,17.00
2019-06-26T23:24:59.814Z,16.40
2019-06-26T23:27:29.378Z,18.17
2019-06-26T23:29:58.641Z,17.67
2019-06-26T23:32:27.941Z,16.90
2019-06-26T23:34:59.156Z,17.17
2019-06-26T23:37:30.145Z,18.07
2019-06-26T23:39:59.722Z,16.77
2019-06-26T23:42:28.930Z,15.47
2019-06-26T23:44:58.437Z,16.63
2019-06-26T23:47:27.949Z,14.87
2019-06-26T23:49:58.229Z,14.70
2019-06-26T23:52:27.571Z,15.17
2019-06-26T23:54:56.900Z,15.13
2019-06-26T23:57:26.174Z,14.10
2019-06-26T23:59:56.059Z,15.03
